createdAt,value
2022-10-15T00:00:25.138Z,14.63
2022-10-15T00:01:25.115Z,14.61
2022-10-15T00:02:25.094Z,14.67
2022-10-15T00:03:25.089Z,14.56
2022-10-15T00:04:25.053Z,14.64
2022-10-15T00:05:25.091Z,14.56
2022-10-15T00:06:25.068Z,14.54
2022-10-15T00:07:25.362Z,14.53
2022-10-15T00:08:25.010Z,14.59
2022-10-15T00:09:25.035Z,14.53
2022-10-15T00:10:25.037Z,14.66
2022-10-15T00:11:25.046Z,14.63
2022-10-15T00:12:25.014Z,14.63
2022-10-15T00:13:24.980Z,14.54
2022-10-15T00:14:24.946Z,14.56
2022-10-15T00:15:25.009Z,14.57
2022-10-15T00:16:25.034Z,14.53
2022-10-15T00:17:25.201Z,14.54
2022-10-15T00:18:24.910Z,14.49
2022-10-15T00:19:24.904Z,14.54
2022-10-15T00:20:24.902Z,14.53
2022-10-15T00:21:24.911Z,14.46
2022-10-15T00:22:25.269Z,14.59
2022-10-15T00:23:24.954Z,14.59
2022-10-15T00:24:24.859Z,14.54
2022-10-15T00:25:24.887Z,14.36
2022-10-15T00:26:24.846Z,14.42
2022-10-15T00:27:24.838Z,14.53
2022-10-15T00:28:24.860Z,14.38
2022-10-15T00:29:24.803Z,14.49
2022-10-15T00:30:24.790Z,14.44
2022-10-15T00:31:24.819Z,14.42
2022-10-15T00:32:26.118Z,14.39
2022-10-15T00:33:24.787Z,14.36
2022-10-15T00:34:24.760Z,14.41
2022-10-15T00:35:24.750Z,14.39
2022-10-15T00:36:24.790Z,14.36
2022-10-15T00:37:24.695Z,14.38
2022-10-15T00:38:24.695Z,14.46
2022-10-15T00:39:24.730Z,14.52
2022-10-15T00:40:24.740Z,14.48
2022-10-15T00:41:24.690Z,14.48
2022-10-15T00:42:25.091Z,14.39
2022-10-15T00:43:24.723Z,14.35
2022-10-15T00:44:24.729Z,14.31
2022-10-15T00:45:24.646Z,14.39
2022-10-15T00:46:24.627Z,14.34
2022-10-15T00:47:24.619Z,14.48
2022-10-15T00:48:24.588Z,14.36
2022-10-15T00:49:24.570Z,14.30
2022-10-15T00:50:24.582Z,14.42
2022-10-15T00:51:24.631Z,14.35
2022-10-15T00:52:24.940Z,14.41
2022-10-15T00:53:24.572Z,14.36
2022-10-15T00:54:24.577Z,14.23
2022-10-15T00:55:24.616Z,14.41
2022-10-15T00:56:24.527Z,14.39
2022-10-15T00:57:24.510Z,14.36
2022-10-15T00:58:24.480Z,14.20
2022-10-15T00:59:24.441Z,14.23
2022-10-15T01:00:24.487Z,14.09
2022-10-15T01:01:24.469Z,14.06
2022-10-15T01:02:25.020Z,14.05
2022-10-15T01:03:24.504Z,14.08
2022-10-15T01:04:24.403Z,13.96
2022-10-15T01:05:24.516Z,13.94
2022-10-15T01:06:24.407Z,14.01
2022-10-15T01:07:24.390Z,13.91
2022-10-15T01:08:24.371Z,13.96
2022-10-15T01:09:24.348Z,13.99
2022-10-15T01:10:24.383Z,13.90
2022-10-15T01:11:24.358Z,13.96
2022-10-15T01:12:24.765Z,13.93
2022-10-15T01:13:24.373Z,13.87
2022-10-15T01:14:24.342Z,13.86
2022-10-15T01:15:24.306Z,13.93
2022-10-15T01:16:24.298Z,13.96
2022-10-15T01:17:24.723Z,13.75
2022-10-15T01:18:24.289Z,13.94
2022-10-15T01:19:24.297Z,13.79
2022-10-15T01:20:24.245Z,13.80
2022-10-15T01:21:24.214Z,13.83
2022-10-15T01:22:24.241Z,13.80
2022-10-15T01:23:25.982Z,13.83
2022-10-15T01:24:24.205Z,13.81
2022-10-15T01:25:24.233Z,13.83
2022-10-15T01:26:24.202Z,13.90
2022-10-15T01:27:24.518Z,13.80
2022-10-15T01:28:24.266Z,13.90
2022-10-15T01:29:24.163Z,13.84
2022-10-15T01:30:24.145Z,13.94
2022-10-15T01:31:24.986Z,13.84
2022-10-15T01:32:24.097Z,13.83
2022-10-15T01:33:24.136Z,13.75
2022-10-15T01:34:24.117Z,13.87
2022-10-15T01:35:24.085Z,13.72
2022-10-15T01:36:24.149Z,13.81
2022-10-15T01:37:24.368Z,13.76
2022-10-15T01:38:24.061Z,13.80
2022-10-15T01:39:24.074Z,13.86
2022-10-15T01:40:24.005Z,13.75
2022-10-15T01:41:24.023Z,13.81
2022-10-15T01:42:24.014Z,13.88
2022-10-15T01:43:24.097Z,13.88
2022-10-15T01:44:24.026Z,13.96
2022-10-15T01:45:23.961Z,13.86
2022-10-15T01:46:24.046Z,14.01
2022-10-15T01:47:24.254Z,13.99
2022-10-15T01:48:23.918Z,13.94
2022-10-15T01:49:23.926Z,13.96
2022-10-15T01:50:24.947Z,13.98
2022-10-15T01:51:23.902Z,14.01
2022-10-15T01:52:23.938Z,13.99
2022-10-15T01:53:23.891Z,13.90
2022-10-15T01:54:23.911Z,14.04
2022-10-15T01:55:23.928Z,14.04
2022-10-15T01:56:23.917Z,14.01
2022-10-15T01:57:24.199Z,13.99
2022-10-15T01:58:23.838Z,14.01
2022-10-15T01:59:23.844Z,13.94
2022-10-15T02:00:23.794Z,13.88
2022-10-15T02:01:23.863Z,14.01
2022-10-15T02:02:23.929Z,14.01
2022-10-15T02:03:23.754Z,14.06
2022-10-15T02:04:23.779Z,14.06
2022-10-15T02:05:23.767Z,14.06
2022-10-15T02:06:23.755Z,14.01
2022-10-15T02:07:23.726Z,14.06
2022-10-15T02:08:23.726Z,14.04
2022-10-15T02:09:23.698Z,14.06
2022-10-15T02:10:23.673Z,14.08
2022-10-15T02:11:23.767Z,13.93
2022-10-15T02:12:23.884Z,13.90
2022-10-15T02:13:23.663Z,13.93
2022-10-15T02:14:23.649Z,13.91
2022-10-15T02:15:23.665Z,13.90
2022-10-15T02:16:23.652Z,13.90
2022-10-15T02:17:23.607Z,13.93
2022-10-15T02:18:23.629Z,13.86
2022-10-15T02:19:23.601Z,13.96
2022-10-15T02:20:23.550Z,13.84
2022-10-15T02:21:24.349Z,13.96
2022-10-15T02:22:23.820Z,13.79
2022-10-15T02:23:23.576Z,13.87
2022-10-15T02:24:23.543Z,13.93
2022-10-15T02:25:23.543Z,13.90
2022-10-15T02:26:23.520Z,13.91
2022-10-15T02:27:23.554Z,13.90
2022-10-15T02:28:23.551Z,13.81
2022-10-15T02:29:23.504Z,13.96
2022-10-15T02:30:23.490Z,14.05
2022-10-15T02:31:23.457Z,13.91
2022-10-15T02:32:23.659Z,13.99
2022-10-15T02:33:23.445Z,14.02
2022-10-15T02:34:23.456Z,14.08
2022-10-15T02:35:23.414Z,14.01
2022-10-15T02:36:23.426Z,14.05
2022-10-15T02:37:23.416Z,14.06
2022-10-15T02:38:23.376Z,14.24
2022-10-15T02:39:23.356Z,14.17
2022-10-15T02:40:23.403Z,14.26
2022-10-15T02:41:23.388Z,14.24
2022-10-15T02:42:23.632Z,14.27
2022-10-15T02:43:23.321Z,14.29
2022-10-15T02:44:23.308Z,14.36
2022-10-15T02:45:23.985Z,14.21
2022-10-15T02:46:23.336Z,14.21
2022-10-15T02:48:23.353Z,14.27
2022-10-15T02:49:23.315Z,14.35
2022-10-15T02:50:23.281Z,14.30
2022-10-15T02:51:23.293Z,14.38
2022-10-15T02:52:23.417Z,14.42
2022-10-15T02:53:23.221Z,14.41
2022-10-15T02:54:23.219Z,14.38
2022-10-15T02:55:23.239Z,14.35
2022-10-15T02:56:24.038Z,14.35
2022-10-15T02:57:23.454Z,14.38
2022-10-15T02:58:23.942Z,14.42
2022-10-15T02:59:23.210Z,14.41
2022-10-15T03:00:23.191Z,14.44
2022-10-15T03:01:23.197Z,14.48
2022-10-15T03:02:23.222Z,14.48
2022-10-15T03:03:23.102Z,14.45
2022-10-15T03:04:23.098Z,14.53
2022-10-15T03:05:23.129Z,14.45
2022-10-15T03:06:23.097Z,14.48
2022-10-15T03:07:23.238Z,14.44
2022-10-15T03:08:23.078Z,14.53
2022-10-15T03:09:23.049Z,14.45
2022-10-15T03:10:23.047Z,14.46
2022-10-15T03:11:23.062Z,14.53
2022-10-15T03:12:23.046Z,14.42
2022-10-15T03:13:23.835Z,14.49
2022-10-15T03:14:23.024Z,14.53
2022-10-15T03:15:23.013Z,14.38
2022-10-15T03:16:22.974Z,14.42
2022-10-15T03:17:23.280Z,14.46
2022-10-15T03:18:22.994Z,14.41
2022-10-15T03:19:22.975Z,14.56
2022-10-15T03:20:22.954Z,14.48
2022-10-15T03:21:22.922Z,14.46
2022-10-15T03:22:22.899Z,14.56
2022-10-15T03:23:22.948Z,14.54
2022-10-15T03:24:22.917Z,14.59
2022-10-15T03:25:22.914Z,14.53
2022-10-15T03:26:22.879Z,14.60
2022-10-15T03:27:23.139Z,14.60
2022-10-15T03:28:22.977Z,14.63
2022-10-15T03:29:22.869Z,14.54
2022-10-15T03:30:22.859Z,14.61
2022-10-15T03:31:22.832Z,14.59
2022-10-15T03:32:22.874Z,14.66
2022-10-15T03:33:25.044Z,14.53
2022-10-15T03:34:22.784Z,14.52
2022-10-15T03:35:22.815Z,14.67
2022-10-15T03:36:22.784Z,14.53
2022-10-15T03:37:23.038Z,14.59
2022-10-15T03:38:22.744Z,14.61
2022-10-15T03:39:22.728Z,14.61
2022-10-15T03:40:22.807Z,14.61
2022-10-15T03:41:22.720Z,14.54
2022-10-15T03:42:22.991Z,14.52
2022-10-15T03:43:22.792Z,14.54
2022-10-15T03:44:22.768Z,14.57
2022-10-15T03:45:22.664Z,14.60
2022-10-15T03:46:23.720Z,14.66
2022-10-15T03:47:22.656Z,14.64
2022-10-15T03:48:22.624Z,14.63
2022-10-15T03:49:22.620Z,14.60
2022-10-15T03:50:22.613Z,14.57
2022-10-15T03:51:24.666Z,14.49
2022-10-15T03:52:22.946Z,14.53
2022-10-15T03:53:22.593Z,14.49
2022-10-15T03:54:22.556Z,14.57
2022-10-15T03:55:22.556Z,14.56
2022-10-15T03:56:22.564Z,14.48
2022-10-15T03:57:22.564Z,14.49
2022-10-15T03:58:22.528Z,14.46
2022-10-15T03:59:22.507Z,14.39
2022-10-15T04:00:22.502Z,14.42
2022-10-15T04:01:22.612Z,14.41
2022-10-15T04:02:23.679Z,14.29
2022-10-15T04:03:22.508Z,14.38
2022-10-15T04:04:22.477Z,14.27
2022-10-15T04:05:22.477Z,14.24
2022-10-15T04:06:22.443Z,14.35
2022-10-15T04:07:22.469Z,14.35
2022-10-15T04:08:22.431Z,14.36
2022-10-15T04:09:22.410Z,14.41
2022-10-15T04:10:22.452Z,14.29
2022-10-15T04:11:22.397Z,14.26
2022-10-15T04:12:22.672Z,14.36
2022-10-15T04:13:22.370Z,14.46
2022-10-15T04:14:22.346Z,14.41
2022-10-15T04:15:22.338Z,14.41
2022-10-15T04:16:22.341Z,14.36
2022-10-15T04:17:22.339Z,14.36
2022-10-15T04:18:22.313Z,14.38
2022-10-15T04:19:22.301Z,14.34
2022-10-15T04:20:23.302Z,14.29
2022-10-15T04:21:22.280Z,14.35
2022-10-15T04:22:22.451Z,14.30
2022-10-15T04:23:22.293Z,14.36
2022-10-15T04:24:22.255Z,14.34
2022-10-15T04:25:22.247Z,14.30
2022-10-15T04:26:22.234Z,14.34
2022-10-15T04:27:22.226Z,14.34
2022-10-15T04:28:22.259Z,14.38
2022-10-15T04:29:22.219Z,14.38
2022-10-15T04:30:22.187Z,14.36
2022-10-15T04:31:22.182Z,14.42
2022-10-15T04:32:22.518Z,14.42
2022-10-15T04:33:22.134Z,14.48
2022-10-15T04:34:22.147Z,14.44
2022-10-15T04:35:22.160Z,14.45
2022-10-15T04:36:22.128Z,14.29
2022-10-15T04:37:22.379Z,14.35
2022-10-15T04:38:22.072Z,14.31
2022-10-15T04:39:22.077Z,14.23
2022-10-15T04:40:22.067Z,14.27
2022-10-15T04:41:22.039Z,14.23
2022-10-15T04:42:22.059Z,14.29
2022-10-15T04:43:22.039Z,14.34
2022-10-15T04:44:22.030Z,14.35
2022-10-15T04:46:21.987Z,14.39
2022-10-15T04:47:22.321Z,14.39
2022-10-15T04:48:21.983Z,14.38
2022-10-15T04:49:21.964Z,14.42
2022-10-15T04:50:22.334Z,14.34
2022-10-15T04:51:21.940Z,14.31
2022-10-15T04:52:21.930Z,14.44
2022-10-15T04:53:22.443Z,14.42
2022-10-15T04:54:21.975Z,14.31
2022-10-15T04:55:21.887Z,14.17
2022-10-15T04:56:21.923Z,14.21
2022-10-15T04:57:22.030Z,14.24
2022-10-15T04:58:21.879Z,14.30
2022-10-15T04:59:21.855Z,14.16
2022-10-15T05:00:22.871Z,14.16
2022-10-15T05:01:21.861Z,14.17
2022-10-15T05:02:21.888Z,14.19
2022-10-15T05:03:21.856Z,14.23
2022-10-15T05:04:21.828Z,14.24
2022-10-15T05:05:21.783Z,14.26
2022-10-15T05:06:26.428Z,14.12
2022-10-15T05:07:22.141Z,14.26
2022-10-15T05:08:21.774Z,14.24
2022-10-15T05:09:21.744Z,14.20
2022-10-15T05:10:21.760Z,14.27
2022-10-15T05:11:21.723Z,14.26
2022-10-15T05:12:21.716Z,14.27
2022-10-15T05:13:21.725Z,14.36
2022-10-15T05:14:21.689Z,14.42
2022-10-15T05:15:21.693Z,14.38
2022-10-15T05:16:21.691Z,14.26
2022-10-15T05:17:21.943Z,14.34
2022-10-15T05:18:21.645Z,14.31
2022-10-15T05:19:21.654Z,14.26
2022-10-15T05:20:21.653Z,14.35
2022-10-15T05:21:21.613Z,14.31
2022-10-15T05:22:21.995Z,14.39
2022-10-15T05:23:21.582Z,14.42
2022-10-15T05:24:21.573Z,14.29
2022-10-15T05:25:22.445Z,14.34
2022-10-15T05:26:21.562Z,14.39
2022-10-15T05:27:21.624Z,14.38
2022-10-15T05:28:21.565Z,14.42
2022-10-15T05:29:21.545Z,14.39
2022-10-15T05:30:21.525Z,14.27
2022-10-15T05:31:21.497Z,14.36
2022-10-15T05:33:21.521Z,14.46
2022-10-15T05:34:21.470Z,14.26
2022-10-15T05:35:21.465Z,14.24
2022-10-15T05:36:21.473Z,14.23
2022-10-15T05:37:21.738Z,14.20
2022-10-15T05:38:21.405Z,14.16
2022-10-15T05:39:22.454Z,14.17
2022-10-15T05:40:22.148Z,14.23
2022-10-15T05:41:21.402Z,14.19
2022-10-15T05:42:21.412Z,14.16
2022-10-15T05:43:21.517Z,14.23
2022-10-15T05:44:21.366Z,14.24
2022-10-15T05:45:21.342Z,14.21
2022-10-15T05:46:21.334Z,14.21
2022-10-15T05:47:21.690Z,14.20
2022-10-15T05:48:21.390Z,14.20
2022-10-15T05:49:21.298Z,14.21
2022-10-15T05:50:21.306Z,14.21
2022-10-15T05:51:21.297Z,14.23
2022-10-15T05:52:21.551Z,14.26
2022-10-15T05:53:21.281Z,14.29
2022-10-15T05:54:21.245Z,14.19
2022-10-15T05:55:21.230Z,14.27
2022-10-15T05:56:21.222Z,14.21
2022-10-15T05:57:21.211Z,14.13
2022-10-15T05:58:21.207Z,14.11
2022-10-15T05:59:21.207Z,14.23
2022-10-15T06:00:21.991Z,14.11
2022-10-15T06:01:21.163Z,14.11
2022-10-15T06:02:21.317Z,14.27
2022-10-15T06:03:21.190Z,14.20
2022-10-15T06:04:21.926Z,14.19
2022-10-15T06:05:21.126Z,14.13
2022-10-15T06:06:21.210Z,14.20
2022-10-15T06:07:21.367Z,14.31
2022-10-15T06:08:21.095Z,14.20
2022-10-15T06:09:21.135Z,14.24
2022-10-15T06:10:21.087Z,14.21
2022-10-15T06:11:21.087Z,14.23
2022-10-15T06:12:21.066Z,14.27
2022-10-15T06:13:21.078Z,14.27
2022-10-15T06:14:21.036Z,14.21
2022-10-15T06:15:21.025Z,14.20
2022-10-15T06:16:23.801Z,14.12
2022-10-15T06:17:21.407Z,14.26
2022-10-15T06:18:20.988Z,14.21
2022-10-15T06:19:21.018Z,14.17
2022-10-15T06:20:20.951Z,14.21
2022-10-15T06:21:20.966Z,14.27
2022-10-15T06:22:20.981Z,14.20
2022-10-15T06:23:20.982Z,14.29
2022-10-15T06:24:20.908Z,14.26
2022-10-15T06:25:20.899Z,14.30
2022-10-15T06:26:20.896Z,14.21
2022-10-15T06:27:21.125Z,14.19
2022-10-15T06:28:20.937Z,14.20
2022-10-15T06:29:20.852Z,14.27
2022-10-15T06:30:20.856Z,14.41
2022-10-15T06:31:20.839Z,14.30
2022-10-15T06:32:20.856Z,14.29
2022-10-15T06:33:20.859Z,14.29
2022-10-15T06:34:20.819Z,14.34
2022-10-15T06:35:20.811Z,14.30
2022-10-15T06:36:20.802Z,14.30
2022-10-15T06:37:21.137Z,14.34
2022-10-15T06:38:20.805Z,14.36
2022-10-15T06:39:20.805Z,14.35
2022-10-15T06:40:20.877Z,14.26
2022-10-15T06:41:20.724Z,14.21
2022-10-15T06:42:20.748Z,14.11
2022-10-15T06:43:20.837Z,14.21
2022-10-15T06:44:20.715Z,14.24
2022-10-15T06:45:21.882Z,14.23
2022-10-15T06:46:21.692Z,14.20
2022-10-15T06:47:20.883Z,14.05
2022-10-15T06:48:20.661Z,14.13
2022-10-15T06:49:20.686Z,14.29
2022-10-15T06:50:21.312Z,14.16
2022-10-15T06:51:20.643Z,14.20
2022-10-15T06:52:20.622Z,14.17
2022-10-15T06:53:20.625Z,14.17
2022-10-15T06:54:20.594Z,14.17
2022-10-15T06:55:20.597Z,14.04
2022-10-15T06:56:21.561Z,14.19
2022-10-15T06:57:20.580Z,14.09
2022-10-15T06:58:20.557Z,14.12
2022-10-15T06:59:20.577Z,14.12
2022-10-15T07:00:20.606Z,14.09
2022-10-15T07:01:20.518Z,14.09
2022-10-15T07:02:20.627Z,14.06
2022-10-15T07:03:20.526Z,14.11
2022-10-15T07:04:20.493Z,14.11
2022-10-15T07:05:20.501Z,14.06
2022-10-15T07:06:20.458Z,14.19
2022-10-15T07:07:20.487Z,14.05
2022-10-15T07:08:20.438Z,14.06
2022-10-15T07:09:20.410Z,14.12
2022-10-15T07:11:20.427Z,14.08
2022-10-15T07:12:20.571Z,14.20
2022-10-15T07:13:20.382Z,14.21
2022-10-15T07:14:20.378Z,14.17
2022-10-15T07:15:20.379Z,14.16
2022-10-15T07:16:20.362Z,14.12
2022-10-15T07:17:20.338Z,14.16
2022-10-15T07:18:20.355Z,14.20
2022-10-15T07:19:20.318Z,14.19
2022-10-15T07:20:23.501Z,14.09
2022-10-15T07:21:20.324Z,14.08
2022-10-15T07:22:20.317Z,14.16
2022-10-15T07:23:24.090Z,14.17
2022-10-15T07:24:20.287Z,14.12
2022-10-15T07:25:20.256Z,14.16
2022-10-15T07:26:20.239Z,14.21
2022-10-15T07:27:20.247Z,14.35
2022-10-15T07:28:20.256Z,14.31
2022-10-15T07:29:20.227Z,14.34
2022-10-15T07:30:20.182Z,14.41
2022-10-15T07:31:20.174Z,14.49
2022-10-15T07:32:20.214Z,14.44
2022-10-15T07:33:20.172Z,14.45
2022-10-15T07:34:20.196Z,14.36
2022-10-15T07:35:20.158Z,14.34
2022-10-15T07:36:20.133Z,14.24
2022-10-15T07:37:20.146Z,14.27
2022-10-15T07:38:20.113Z,14.44
2022-10-15T07:39:20.128Z,14.35
2022-10-15T07:40:20.094Z,14.49
2022-10-15T07:41:20.095Z,14.48
2022-10-15T07:42:20.117Z,14.57
2022-10-15T07:43:20.092Z,14.64
2022-10-15T07:44:20.100Z,14.67
2022-10-15T07:45:20.044Z,14.86
2022-10-15T07:46:20.037Z,14.78
2022-10-15T07:47:20.055Z,14.80
2022-10-15T07:48:20.030Z,14.80
2022-10-15T07:49:20.001Z,14.83
2022-10-15T07:50:20.123Z,14.87
2022-10-15T07:51:19.969Z,14.90
2022-10-15T07:52:19.981Z,14.72
2022-10-15T07:53:21.986Z,14.75
2022-10-15T07:54:20.072Z,14.75
2022-10-15T07:55:19.940Z,14.71
2022-10-15T07:56:20.169Z,14.71
2022-10-15T07:57:19.916Z,14.78
2022-10-15T07:58:20.009Z,14.64
2022-10-15T07:59:19.954Z,14.71
2022-10-15T08:00:19.923Z,14.74
2022-10-15T08:01:19.853Z,14.72
2022-10-15T08:02:19.861Z,14.78
2022-10-15T08:03:19.846Z,14.78
2022-10-15T08:04:19.847Z,14.97
2022-10-15T08:05:19.832Z,14.82
2022-10-15T08:06:19.833Z,14.93
2022-10-15T08:07:19.812Z,14.97
2022-10-15T08:08:19.794Z,14.90
2022-10-15T08:09:19.788Z,14.86
2022-10-15T08:10:19.800Z,14.83
2022-10-15T08:11:19.747Z,14.86
2022-10-15T08:12:19.760Z,14.87
2022-10-15T08:13:19.737Z,14.78
2022-10-15T08:14:19.756Z,14.87
2022-10-15T08:15:19.814Z,14.85
2022-10-15T08:16:19.732Z,14.82
2022-10-15T08:17:19.705Z,14.90
2022-10-15T08:18:19.689Z,14.87
2022-10-15T08:19:19.678Z,14.98
2022-10-15T08:20:19.676Z,14.97
2022-10-15T08:21:19.709Z,14.95
2022-10-15T08:22:19.648Z,15.04
2022-10-15T08:23:19.889Z,15.07
2022-10-15T08:24:19.725Z,15.18
2022-10-15T08:25:19.580Z,15.31
2022-10-15T08:26:20.633Z,15.22
2022-10-15T08:27:19.593Z,15.28
2022-10-15T08:28:20.494Z,15.33
2022-10-15T08:29:19.608Z,15.40
2022-10-15T08:30:19.614Z,15.40
2022-10-15T08:31:19.581Z,15.46
2022-10-15T08:32:19.557Z,15.43
2022-10-15T08:33:19.530Z,15.67
2022-10-15T08:34:19.578Z,15.78
2022-10-15T08:35:19.487Z,15.64
2022-10-15T08:36:19.503Z,15.46
2022-10-15T08:37:19.525Z,15.51
2022-10-15T08:38:19.978Z,15.49
2022-10-15T08:39:19.462Z,15.48
2022-10-15T08:40:19.558Z,15.49
2022-10-15T08:41:19.437Z,15.48
2022-10-15T08:42:19.462Z,15.43
2022-10-15T08:43:19.414Z,15.44
2022-10-15T08:44:19.403Z,15.48
2022-10-15T08:45:19.405Z,15.56
2022-10-15T08:46:19.393Z,15.53
2022-10-15T08:47:19.433Z,15.68
2022-10-15T08:48:19.374Z,15.60
2022-10-15T08:49:19.362Z,15.70
2022-10-15T08:50:19.430Z,15.77
2022-10-15T08:51:19.324Z,15.88
2022-10-15T08:52:19.346Z,15.91
2022-10-15T08:53:19.368Z,16.01
2022-10-15T08:54:19.316Z,15.91
2022-10-15T08:55:19.418Z,15.91
2022-10-15T08:56:19.238Z,15.89
2022-10-15T08:57:19.335Z,15.74
2022-10-15T08:58:19.243Z,15.84
2022-10-15T08:59:19.287Z,15.76
2022-10-15T09:00:19.209Z,15.78
2022-10-15T09:01:19.911Z,15.80
2022-10-15T09:02:19.262Z,15.78
2022-10-15T09:03:19.272Z,15.84
2022-10-15T09:04:19.275Z,15.73
2022-10-15T09:05:19.182Z,15.99
2022-10-15T09:06:19.187Z,15.91
2022-10-15T09:07:19.155Z,16.06
2022-10-15T09:08:19.331Z,16.17
2022-10-15T09:09:19.139Z,16.16
2022-10-15T09:10:19.296Z,16.17
2022-10-15T09:11:19.108Z,15.95
2022-10-15T09:12:19.105Z,16.08
2022-10-15T09:13:19.098Z,16.16
2022-10-15T09:14:19.133Z,16.11
2022-10-15T09:15:21.572Z,16.04
2022-10-15T09:16:19.085Z,15.95
2022-10-15T09:17:19.047Z,16.11
2022-10-15T09:18:19.071Z,16.11
2022-10-15T09:19:19.041Z,16.01
2022-10-15T09:20:19.183Z,16.06
2022-10-15T09:21:19.020Z,15.95
2022-10-15T09:22:19.007Z,15.91
2022-10-15T09:23:19.014Z,15.85
2022-10-15T09:24:19.130Z,15.95
2022-10-15T09:25:18.978Z,16.11
2022-10-15T09:26:18.953Z,16.18
2022-10-15T09:27:18.956Z,16.25
2022-10-15T09:28:19.071Z,16.34
2022-10-15T09:29:18.945Z,16.40
2022-10-15T09:30:18.912Z,16.47
2022-10-15T09:31:18.933Z,16.66
2022-10-15T09:32:18.873Z,16.67
2022-10-15T09:33:18.861Z,16.80
2022-10-15T09:34:19.185Z,16.82
2022-10-15T09:35:18.845Z,16.63
2022-10-15T09:36:18.993Z,16.60
2022-10-15T09:37:18.881Z,16.45
2022-10-15T09:38:18.842Z,16.41
2022-10-15T09:39:18.844Z,16.34
2022-10-15T09:40:18.805Z,16.33
2022-10-15T09:41:18.814Z,16.27
2022-10-15T09:42:18.957Z,16.41
2022-10-15T09:43:18.753Z,16.29
2022-10-15T09:44:21.142Z,16.37
2022-10-15T09:45:18.769Z,16.41
2022-10-15T09:46:18.769Z,16.29
2022-10-15T09:47:18.761Z,16.33
2022-10-15T09:48:18.745Z,16.30
2022-10-15T09:49:18.705Z,16.30
2022-10-15T09:51:19.673Z,15.95
2022-10-15T09:52:18.734Z,15.91
2022-10-15T09:53:18.661Z,15.86
2022-10-15T09:54:18.666Z,15.95
2022-10-15T09:55:18.603Z,15.93
2022-10-15T09:56:18.618Z,15.98
2022-10-15T09:57:18.606Z,15.95
2022-10-15T09:58:18.638Z,16.04
2022-10-15T09:59:18.614Z,16.16
2022-10-15T10:00:18.649Z,16.07
2022-10-15T10:01:18.566Z,16.06
2022-10-15T10:02:18.587Z,16.14
2022-10-15T10:03:18.550Z,16.13
2022-10-15T10:04:18.547Z,16.04
2022-10-15T10:05:18.520Z,16.13
2022-10-15T10:06:18.510Z,16.10
2022-10-15T10:07:18.543Z,16.03
2022-10-15T10:08:18.491Z,15.98
2022-10-15T10:09:18.487Z,16.03
2022-10-15T10:10:18.443Z,16.04
2022-10-15T10:11:18.454Z,16.08
2022-10-15T10:12:18.445Z,15.99
2022-10-15T10:13:18.427Z,16.13
2022-10-15T10:14:18.503Z,16.25
2022-10-15T10:15:18.418Z,16.10
2022-10-15T10:16:18.406Z,16.17
2022-10-15T10:17:18.438Z,16.40
2022-10-15T10:18:18.367Z,16.37
2022-10-15T10:19:18.372Z,16.22
2022-10-15T10:20:18.449Z,16.08
2022-10-15T10:21:18.366Z,16.04
2022-10-15T10:22:18.338Z,16.03
2022-10-15T10:23:18.327Z,16.07
2022-10-15T10:24:18.316Z,16.14
2022-10-15T10:25:18.324Z,16.26
2022-10-15T10:26:18.331Z,16.25
2022-10-15T10:27:18.279Z,16.23
2022-10-15T10:28:18.356Z,16.18
2022-10-15T10:29:32.812Z,16.23
2022-10-15T10:30:20.266Z,16.27
2022-10-15T10:31:18.239Z,16.29
2022-10-15T10:32:18.263Z,16.33
2022-10-15T10:33:18.232Z,16.30
2022-10-15T10:34:18.229Z,16.44
2022-10-15T10:35:18.311Z,16.78
2022-10-15T10:36:18.212Z,17.02
2022-10-15T10:37:18.430Z,17.15
2022-10-15T10:38:18.165Z,16.98
2022-10-15T10:39:18.884Z,16.70
2022-10-15T10:40:18.184Z,16.70
2022-10-15T10:41:18.421Z,16.70
2022-10-15T10:42:18.108Z,16.69
2022-10-15T10:43:18.201Z,16.57
2022-10-15T10:44:18.121Z,16.63
2022-10-15T10:45:18.824Z,16.65
2022-10-15T10:46:19.071Z,16.69
2022-10-15T10:47:18.072Z,16.66
2022-10-15T10:48:18.069Z,16.72
2022-10-15T10:49:18.188Z,16.57
2022-10-15T10:50:19.657Z,16.59
2022-10-15T10:51:19.440Z,16.48
2022-10-15T10:52:18.041Z,16.48
2022-10-15T10:53:18.005Z,16.55
2022-10-15T10:54:17.978Z,16.59
2022-10-15T10:55:17.988Z,16.57
2022-10-15T10:56:17.993Z,16.55
2022-10-15T10:57:17.960Z,16.62
2022-10-15T10:58:17.935Z,16.60
2022-10-15T10:59:17.904Z,16.50
2022-10-15T11:00:17.972Z,16.44
2022-10-15T11:01:18.022Z,16.50
2022-10-15T11:02:17.872Z,16.40
2022-10-15T11:03:17.885Z,16.42
2022-10-15T11:04:19.513Z,16.37
2022-10-15T11:05:17.998Z,16.37
2022-10-15T11:06:17.822Z,16.42
2022-10-15T11:07:17.848Z,16.48
2022-10-15T11:08:17.858Z,16.41
2022-10-15T11:09:17.810Z,16.47
2022-10-15T11:10:17.821Z,16.45
2022-10-15T11:11:17.782Z,16.44
2022-10-15T11:12:17.789Z,16.47
2022-10-15T11:13:17.802Z,16.48
2022-10-15T11:14:17.768Z,16.42
2022-10-15T11:15:17.766Z,16.48
2022-10-15T11:16:17.762Z,16.54
2022-10-15T11:17:17.734Z,16.48
2022-10-15T11:18:17.769Z,16.45
2022-10-15T11:19:19.839Z,16.50
2022-10-15T11:20:49.746Z,16.48
2022-10-15T11:21:19.673Z,16.51
2022-10-15T11:23:17.746Z,16.34
2022-10-15T11:24:17.638Z,16.33
2022-10-15T11:25:17.675Z,16.32
2022-10-15T11:26:17.618Z,16.37
2022-10-15T11:27:17.648Z,16.47
2022-10-15T11:28:17.654Z,16.42
2022-10-15T11:29:17.594Z,16.42
2022-10-15T11:30:17.854Z,16.45
2022-10-15T11:31:17.589Z,16.27
2022-10-15T11:32:18.649Z,16.25
2022-10-15T11:33:17.550Z,16.36
2022-10-15T11:34:17.572Z,16.44
2022-10-15T11:35:34.438Z,16.47
2022-10-15T11:36:18.514Z,16.51
2022-10-15T11:37:17.578Z,16.48
2022-10-15T11:38:17.554Z,16.60
2022-10-15T11:39:17.543Z,16.63
2022-10-15T11:40:17.574Z,16.60
2022-10-15T11:41:17.514Z,16.67
2022-10-15T11:42:17.434Z,16.63
2022-10-15T11:43:17.435Z,16.55
2022-10-15T11:44:17.477Z,16.54
2022-10-15T11:45:17.408Z,16.54
2022-10-15T11:46:17.457Z,16.59
2022-10-15T11:47:17.419Z,16.59
2022-10-15T11:48:17.427Z,16.67
2022-10-15T11:49:17.379Z,16.62
2022-10-15T11:50:17.383Z,16.65
2022-10-15T11:51:17.352Z,16.57
2022-10-15T11:52:17.361Z,16.69
2022-10-15T11:53:17.368Z,16.59
2022-10-15T11:54:17.326Z,16.66
2022-10-15T11:55:17.322Z,16.62
2022-10-15T11:56:17.308Z,16.69
2022-10-15T11:57:17.299Z,16.62
2022-10-15T11:58:17.290Z,16.66
2022-10-15T11:59:17.250Z,16.70
2022-10-15T12:00:17.260Z,16.66
2022-10-15T12:01:17.269Z,16.66
2022-10-15T12:02:17.224Z,16.70
2022-10-15T12:03:17.332Z,16.63
2022-10-15T12:04:17.300Z,16.67
2022-10-15T12:05:17.230Z,16.66
2022-10-15T12:06:17.344Z,16.66
2022-10-15T12:07:17.168Z,16.67
2022-10-15T12:08:17.172Z,16.69
2022-10-15T12:09:17.153Z,16.57
2022-10-15T12:10:17.161Z,16.48
2022-10-15T12:11:17.191Z,16.57
2022-10-15T12:12:17.165Z,16.52
2022-10-15T12:13:18.092Z,16.44
2022-10-15T12:14:17.100Z,16.47
2022-10-15T12:15:17.085Z,16.55
2022-10-15T12:16:17.086Z,16.59
2022-10-15T12:17:17.077Z,16.51
2022-10-15T12:18:17.025Z,16.44
2022-10-15T12:19:17.029Z,16.50
2022-10-15T12:20:17.022Z,16.50
2022-10-15T12:21:17.008Z,16.57
2022-10-15T12:22:17.059Z,16.51
2022-10-15T12:23:17.023Z,16.55
2022-10-15T12:24:16.989Z,16.59
2022-10-15T12:25:16.993Z,16.60
2022-10-15T12:26:16.958Z,16.51
2022-10-15T12:27:16.929Z,16.52
2022-10-15T12:28:17.005Z,16.52
2022-10-15T12:29:16.982Z,16.62
2022-10-15T12:30:16.881Z,16.55
2022-10-15T12:31:16.889Z,16.51
2022-10-15T12:32:16.861Z,16.50
2022-10-15T12:33:16.894Z,16.51
2022-10-15T12:34:16.941Z,16.47
2022-10-15T12:35:16.896Z,16.52
2022-10-15T12:36:16.853Z,16.55
2022-10-15T12:37:16.858Z,16.60
2022-10-15T12:38:16.838Z,16.51
2022-10-15T12:39:27.760Z,16.55
2022-10-15T12:40:17.837Z,16.54
2022-10-15T12:41:16.794Z,16.47
2022-10-15T12:42:16.777Z,16.60
2022-10-15T12:43:16.763Z,16.72
2022-10-15T12:44:16.852Z,16.66
2022-10-15T12:45:16.745Z,16.73
2022-10-15T12:46:16.706Z,16.75
2022-10-15T12:47:16.727Z,16.85
2022-10-15T12:48:16.735Z,16.82
2022-10-15T12:49:16.931Z,16.90
2022-10-15T12:50:16.919Z,16.69
2022-10-15T12:51:16.698Z,16.75
2022-10-15T12:52:16.690Z,16.84
2022-10-15T12:53:16.695Z,16.85
2022-10-15T12:54:16.654Z,16.81
2022-10-15T12:55:16.651Z,16.84
2022-10-15T12:56:17.651Z,16.77
2022-10-15T12:57:16.609Z,16.73
2022-10-15T12:58:16.631Z,16.73